createdAt,value
2024-02-16T00:02:27.856Z,17.73
2024-02-16T00:04:56.607Z,109.15
2024-02-16T00:07:34.584Z,26.00
2024-02-16T00:10:01.871Z,10.30
2024-02-16T00:12:37.277Z,9.95
2024-02-16T00:15:05.110Z,10.75
2024-02-16T00:17:53.301Z,40.72
2024-02-16T00:20:32.589Z,34.88
2024-02-16T00:23:14.620Z,8.38
2024-02-16T00:25:55.139Z,6.60
2024-02-16T00:28:27.856Z,10.52
2024-02-16T00:31:04.891Z,37.25
2024-02-16T00:33:38.180Z,24.10
2024-02-16T00:36:47.074Z,18.75
2024-02-16T00:39:44.448Z,30.65
2024-02-16T00:43:25.789Z,39.78
2024-02-16T00:45:22.654Z,60.47
2024-02-16T00:48:00.622Z,33.88
2024-02-16T00:50:38.363Z,22.02
2024-02-16T00:53:11.548Z,47.03
2024-02-16T00:55:47.576Z,53.25
2024-02-16T00:58:18.436Z,48.08
2024-02-16T01:00:48.347Z,51.10
2024-02-16T01:03:20.512Z,15.25
2024-02-16T01:08:29.290Z,22.00
2024-02-16T01:11:00.886Z,18.92
2024-02-16T01:13:31.411Z,17.15
2024-02-16T01:16:02.352Z,11.00
2024-02-16T01:18:38.941Z,11.13
2024-02-16T01:21:15.421Z,20.98
2024-02-16T01:24:08.445Z,20.08
2024-02-16T01:26:43.652Z,72.63
2024-02-16T01:29:15.720Z,15.27
2024-02-16T01:31:46.241Z,12.82
2024-02-16T01:34:19.754Z,19.45
2024-02-16T01:37:20.391Z,51.60
2024-02-16T01:39:54.881Z,7.43
2024-02-16T01:42:26.166Z,16.50
2024-02-16T01:44:56.365Z,10.77
2024-02-16T01:47:32.425Z,27.33
2024-02-16T02:00:58.413Z,14.30
2024-02-16T02:03:26.042Z,11.63
2024-02-16T02:05:57.482Z,20.60
2024-02-16T02:08:28.856Z,12.45
2024-02-16T02:10:56.880Z,20.27
2024-02-16T02:13:24.260Z,16.52
2024-02-16T02:15:54.787Z,24.58
2024-02-16T02:18:30.769Z,13.55
2024-02-16T02:21:06.897Z,23.02
2024-02-16T02:24:33.334Z,49.63
2024-02-16T02:31:58.943Z,111.72
2024-02-16T02:34:27.978Z,53.58
2024-02-16T02:37:20.701Z,47.25
2024-02-16T02:39:54.437Z,40.05
2024-02-16T02:42:24.413Z,16.42
2024-02-16T02:44:54.732Z,26.55
2024-02-16T02:47:25.106Z,67.82
2024-02-16T02:49:59.375Z,62.67
2024-02-16T02:52:38.672Z,15.88
2024-02-16T02:55:11.812Z,30.25
2024-02-16T02:57:42.962Z,14.43
2024-02-16T03:00:15.862Z,10.60
2024-02-16T03:02:46.460Z,14.20
2024-02-16T03:05:13.858Z,12.93
2024-02-16T03:07:41.959Z,73.45
2024-02-16T03:10:11.710Z,50.83
2024-02-16T03:12:46.673Z,9.23
2024-02-16T03:15:25.704Z,62.97
2024-02-16T03:17:56.165Z,46.30
2024-02-16T03:20:29.686Z,38.13
2024-02-16T03:22:57.683Z,22.27
2024-02-16T03:25:28.505Z,39.35
2024-02-16T03:27:58.824Z,93.15
2024-02-16T03:30:28.789Z,9.07
2024-02-16T03:33:03.371Z,123.45
2024-02-16T03:35:40.200Z,39.13
2024-02-16T03:38:07.984Z,79.95
2024-02-16T03:40:35.771Z,20.42
2024-02-16T03:43:05.012Z,14.38
2024-02-16T03:45:32.512Z,74.75
2024-02-16T03:48:06.648Z,13.10
2024-02-16T03:50:39.210Z,33.53
2024-02-16T03:53:15.202Z,91.15
2024-02-16T03:55:44.855Z,48.78
2024-02-16T03:58:15.785Z,9.50
2024-02-16T04:00:46.873Z,129.50
2024-02-16T04:03:15.663Z,54.40
2024-02-16T04:05:51.628Z,28.10
2024-02-16T04:08:26.422Z,127.45
2024-02-16T04:10:53.666Z,80.63
2024-02-16T04:13:24.523Z,24.38
2024-02-16T04:15:55.320Z,54.00
2024-02-16T04:18:26.685Z,13.95
2024-02-16T04:20:54.804Z,84.47
2024-02-16T04:23:24.920Z,13.77
2024-02-16T04:26:01.085Z,16.40
2024-02-16T04:28:34.149Z,28.95
2024-02-16T04:31:05.405Z,46.90
2024-02-16T04:33:32.724Z,21.63
2024-02-16T04:36:10.538Z,43.78
2024-02-16T04:38:37.949Z,37.65
2024-02-16T04:41:09.508Z,52.05
2024-02-16T04:43:40.601Z,46.97
2024-02-16T04:46:20.683Z,30.60
2024-02-16T04:48:48.360Z,104.40
2024-02-16T04:51:17.912Z,21.80
2024-02-16T04:54:03.081Z,13.45
2024-02-16T04:56:30.375Z,76.03
2024-02-16T04:59:08.496Z,41.58
2024-02-16T05:01:38.791Z,37.50
2024-02-16T05:04:11.652Z,28.98
2024-02-16T05:06:44.283Z,167.82
2024-02-16T05:09:14.613Z,17.73
2024-02-16T05:11:42.654Z,21.60
2024-02-16T05:14:15.735Z,15.90
2024-02-16T05:16:46.386Z,28.15
2024-02-16T05:19:18.656Z,46.70
2024-02-16T05:21:52.049Z,26.42
2024-02-16T05:24:26.694Z,79.43
2024-02-16T05:26:57.155Z,22.40
2024-02-16T05:29:30.535Z,18.92
2024-02-16T05:32:00.034Z,16.27
2024-02-16T05:34:28.829Z,41.20
2024-02-16T05:36:56.355Z,17.02
2024-02-16T05:39:28.282Z,112.72
2024-02-16T05:41:56.058Z,73.93
2024-02-16T05:44:23.314Z,16.75
2024-02-16T05:46:53.633Z,106.22
2024-02-16T05:49:24.954Z,102.10
2024-02-16T05:52:26.988Z,65.72
2024-02-16T05:55:14.774Z,93.22
2024-02-16T05:57:44.286Z,114.50
2024-02-16T06:00:17.277Z,79.55
2024-02-16T06:02:44.903Z,109.05
2024-02-16T06:05:23.005Z,325.48
2024-02-16T06:07:53.293Z,38.92
2024-02-16T06:10:26.421Z,35.97
2024-02-16T06:12:54.910Z,22.27
2024-02-16T06:15:22.895Z,18.70
2024-02-16T06:17:55.159Z,42.53
2024-02-16T06:20:26.421Z,17.85
2024-02-16T06:22:56.838Z,36.03
2024-02-16T06:25:48.575Z,15.07
2024-02-16T06:28:19.441Z,47.22
2024-02-16T06:31:10.111Z,13.18
2024-02-16T06:33:39.869Z,22.70
2024-02-16T06:36:17.916Z,14.80
2024-02-16T06:41:28.312Z,14.40
2024-02-16T06:44:03.465Z,13.00
2024-02-16T06:46:36.509Z,10.65
2024-02-16T06:49:09.052Z,8.52
2024-02-16T06:51:40.414Z,9.27
2024-02-16T06:54:13.225Z,10.18
2024-02-16T06:56:49.019Z,10.15
2024-02-16T06:59:22.648Z,6.95
2024-02-16T07:05:07.988Z,13.70
2024-02-16T07:07:37.974Z,10.15
2024-02-16T07:13:30.338Z,10.30
2024-02-16T07:16:00.819Z,7.05
2024-02-16T07:18:34.756Z,9.10
2024-02-16T07:21:09.176Z,9.70
2024-02-16T07:26:42.052Z,11.50
2024-02-16T07:29:27.238Z,8.35
2024-02-16T07:31:56.712Z,11.30
2024-02-16T07:34:46.822Z,9.35
2024-02-16T07:37:17.866Z,10.70
2024-02-16T07:40:13.598Z,8.32
2024-02-16T07:43:49.554Z,8.85
2024-02-16T07:47:19.135Z,9.38
2024-02-16T07:50:18.825Z,7.50
2024-02-16T07:52:54.995Z,9.10
2024-02-16T07:55:27.603Z,9.85
2024-02-16T07:58:10.944Z,8.95
2024-02-16T08:01:10.583Z,9.57
2024-02-16T08:03:36.312Z,9.50
2024-02-16T08:06:26.064Z,9.70
2024-02-16T08:08:56.193Z,10.45
2024-02-16T08:11:40.533Z,12.43
2024-02-16T08:14:10.692Z,8.80
2024-02-16T08:16:37.905Z,7.18
2024-02-16T08:19:05.719Z,9.70
2024-02-16T08:21:43.858Z,9.93
2024-02-16T08:24:42.079Z,9.57
2024-02-16T08:27:16.590Z,11.15
2024-02-16T08:30:00.816Z,8.25
2024-02-16T08:32:45.394Z,7.38
2024-02-16T08:35:33.641Z,16.85
2024-02-16T08:38:09.645Z,9.65
2024-02-16T08:40:43.135Z,9.35
2024-02-16T08:43:15.751Z,11.15
2024-02-16T08:48:28.636Z,9.10
2024-02-16T08:51:34.606Z,8.65
2024-02-16T08:54:10.744Z,10.57
2024-02-16T08:57:10.725Z,8.93
2024-02-16T08:59:30.410Z,10.30
2024-02-16T09:01:59.914Z,9.95
2024-02-16T09:04:41.477Z,8.73
2024-02-16T09:07:26.910Z,8.68
2024-02-16T09:10:09.828Z,8.20
2024-02-16T09:12:37.824Z,11.43
2024-02-16T09:15:17.874Z,9.85
2024-02-16T09:17:45.394Z,8.90
2024-02-16T09:20:27.650Z,9.95
2024-02-16T09:23:11.478Z,9.23
2024-02-16T09:25:43.633Z,8.65
2024-02-16T09:28:29.822Z,12.13
2024-02-16T09:31:16.176Z,8.27
2024-02-16T09:34:05.969Z,8.88
2024-02-16T09:37:05.807Z,10.90
2024-02-16T09:40:51.248Z,8.50
2024-02-16T09:42:58.253Z,10.93
2024-02-16T09:45:30.535Z,9.93
2024-02-16T09:48:07.758Z,12.52
2024-02-16T09:54:07.752Z,10.70
2024-02-16T09:56:36.113Z,10.23
2024-02-16T10:02:50.771Z,10.95
2024-02-16T10:05:51.388Z,13.68
2024-02-16T10:08:47.857Z,10.30
2024-02-16T10:11:23.306Z,11.05
2024-02-16T10:14:22.135Z,10.88
2024-02-16T10:17:21.728Z,10.43
2024-02-16T10:20:09.687Z,10.85
2024-02-16T10:22:48.317Z,10.93
2024-02-16T10:25:45.162Z,13.70
2024-02-16T10:28:33.212Z,10.95
2024-02-16T10:31:12.062Z,11.43
2024-02-16T10:34:37.198Z,13.57
2024-02-16T10:37:09.392Z,10.45
2024-02-16T10:39:46.109Z,14.35
2024-02-16T10:42:25.552Z,13.57
2024-02-16T10:45:05.998Z,16.33
2024-02-16T10:47:41.686Z,15.77
2024-02-16T10:50:29.111Z,18.45
2024-02-16T10:53:40.973Z,23.48
2024-02-16T10:56:28.492Z,19.40
2024-02-16T10:59:11.465Z,23.15
2024-02-16T11:01:48.953Z,25.83
2024-02-16T11:04:23.102Z,39.22
2024-02-16T11:06:57.066Z,34.95
2024-02-16T11:09:38.225Z,39.50
2024-02-16T11:12:15.010Z,40.38
2024-02-16T11:14:57.053Z,39.53
2024-02-16T11:18:00.461Z,28.83
2024-02-16T11:20:59.116Z,50.92
2024-02-16T11:23:37.728Z,64.30
2024-02-16T11:26:10.285Z,118.63
2024-02-16T11:29:00.180Z,140.02
2024-02-16T11:31:29.851Z,57.22
2024-02-16T11:34:12.488Z,210.50
2024-02-16T11:39:50.587Z,113.68
2024-02-16T11:42:27.555Z,96.13
2024-02-16T11:45:06.690Z,229.82
2024-02-16T11:47:47.010Z,143.45
2024-02-16T11:50:45.216Z,53.22
2024-02-16T11:53:24.341Z,145.70
2024-02-16T11:56:05.980Z,162.32
2024-02-16T11:58:43.573Z,151.23
2024-02-16T12:02:06.501Z,120.53
2024-02-16T12:04:34.298Z,223.63
2024-02-16T12:07:29.156Z,87.78
2024-02-16T12:10:06.431Z,80.10
2024-02-16T12:12:36.603Z,120.32
2024-02-16T12:15:21.359Z,85.30
2024-02-16T12:18:02.123Z,48.08
2024-02-16T12:20:34.096Z,92.53
2024-02-16T12:23:33.315Z,48.28
2024-02-16T12:26:01.598Z,87.65
2024-02-16T12:28:34.662Z,106.22
2024-02-16T12:31:09.043Z,70.45
2024-02-16T12:33:48.551Z,54.83
2024-02-16T12:36:37.203Z,210.20
2024-02-16T12:39:06.276Z,194.90
2024-02-16T12:41:46.049Z,131.98
2024-02-16T12:44:21.754Z,103.82
2024-02-16T12:46:54.348Z,97.43
2024-02-16T12:52:23.049Z,128.95
2024-02-16T12:54:53.368Z,115.63
2024-02-16T12:57:26.731Z,86.13
2024-02-16T13:00:35.914Z,90.35
2024-02-16T13:03:38.856Z,135.65
2024-02-16T13:06:18.060Z,167.10
2024-02-16T13:08:50.089Z,179.77
2024-02-16T13:14:14.987Z,175.10
2024-02-16T13:16:46.681Z,35.92
2024-02-16T13:22:15.175Z,100.30
2024-02-16T13:24:57.352Z,231.88
2024-02-16T13:27:33.739Z,128.20
2024-02-16T13:30:08.373Z,107.40
2024-02-16T13:32:42.446Z,230.07
2024-02-16T13:35:24.959Z,196.57
2024-02-16T13:37:55.762Z,105.70
2024-02-16T13:40:26.218Z,134.48
2024-02-16T13:43:02.029Z,173.25
2024-02-16T13:45:54.791Z,76.93
2024-02-16T13:48:31.712Z,69.47
2024-02-16T13:51:02.331Z,163.15
2024-02-16T13:53:34.694Z,158.90
2024-02-16T13:56:08.826Z,114.95
2024-02-16T13:58:49.709Z,87.43
2024-02-16T14:01:41.759Z,77.28
2024-02-16T14:04:12.296Z,114.82
2024-02-16T14:06:40.345Z,187.48
2024-02-16T14:09:24.031Z,123.13
2024-02-16T14:11:56.984Z,82.63
2024-02-16T14:14:36.233Z,186.02
2024-02-16T14:17:08.749Z,78.30
2024-02-16T14:19:41.287Z,99.50
2024-02-16T14:22:13.870Z,103.22
2024-02-16T14:24:41.229Z,209.00
2024-02-16T14:27:14.876Z,146.27
2024-02-16T14:29:42.637Z,167.38
2024-02-16T14:32:10.169Z,161.93
2024-02-16T14:34:58.233Z,149.63
2024-02-16T14:37:30.246Z,184.43
2024-02-16T14:42:27.075Z,86.72
2024-02-16T14:44:55.644Z,77.22
2024-02-16T14:47:25.021Z,152.13
2024-02-16T14:49:53.481Z,97.72
2024-02-16T14:52:22.452Z,120.47
2024-02-16T14:54:55.152Z,89.20
2024-02-16T14:57:26.381Z,129.30
2024-02-16T15:00:15.426Z,113.43
2024-02-16T15:02:44.587Z,104.18
2024-02-16T15:05:12.161Z,67.32
2024-02-16T15:07:48.054Z,157.07
2024-02-16T15:10:18.622Z,39.90
2024-02-16T15:12:53.796Z,104.38
2024-02-16T15:15:25.136Z,50.53
2024-02-16T15:17:52.998Z,96.90
2024-02-16T15:20:26.743Z,100.65
2024-02-16T15:23:04.010Z,101.97
2024-02-16T15:25:41.870Z,206.15
2024-02-16T15:28:09.118Z,95.53
2024-02-16T15:30:36.905Z,29.10
2024-02-16T15:33:04.298Z,25.92
2024-02-16T15:35:40.356Z,27.52
2024-02-16T15:38:07.658Z,36.15
2024-02-16T15:40:55.682Z,39.88
2024-02-16T15:43:24.065Z,25.75
2024-02-16T15:46:02.426Z,22.83
2024-02-16T15:48:36.315Z,24.58
2024-02-16T15:51:06.336Z,20.27
2024-02-16T15:53:36.013Z,19.17
2024-02-16T15:56:05.777Z,20.13
2024-02-16T15:58:46.072Z,19.83
2024-02-16T16:01:13.829Z,19.08
2024-02-16T16:03:47.814Z,20.73
2024-02-16T16:06:15.739Z,20.23
2024-02-16T16:08:48.952Z,21.15
2024-02-16T16:11:29.102Z,20.52
2024-02-16T16:14:03.629Z,18.85
2024-02-16T16:16:37.652Z,17.23
2024-02-16T16:19:09.215Z,18.00
2024-02-16T16:21:37.096Z,18.13
2024-02-16T16:24:12.521Z,20.38
2024-02-16T16:26:46.434Z,19.25
2024-02-16T16:29:36.113Z,18.60
2024-02-16T16:32:07.040Z,17.00
2024-02-16T16:34:36.352Z,18.92
2024-02-16T16:37:08.322Z,19.20
2024-02-16T16:39:38.406Z,20.75
2024-02-16T16:42:08.483Z,17.95
2024-02-16T16:44:35.754Z,18.17
2024-02-16T16:47:14.062Z,19.27
2024-02-16T16:49:42.722Z,21.27
2024-02-16T16:52:11.348Z,20.63
2024-02-16T16:54:38.970Z,19.38
2024-02-16T16:57:09.245Z,19.80
2024-02-16T16:59:36.897Z,18.23
2024-02-16T17:02:07.447Z,15.73
2024-02-16T17:04:35.188Z,19.60
2024-02-16T17:07:07.256Z,17.50
2024-02-16T17:09:41.035Z,18.13
2024-02-16T17:12:11.391Z,18.00
2024-02-16T17:14:41.078Z,18.63
2024-02-16T17:17:08.417Z,17.13
2024-02-16T17:19:35.730Z,15.75
2024-02-16T17:22:05.688Z,17.90
2024-02-16T17:24:41.616Z,18.10
2024-02-16T17:27:29.632Z,18.92
2024-02-16T17:29:57.407Z,18.85
2024-02-16T17:32:27.828Z,18.48
2024-02-16T17:34:55.691Z,15.48
2024-02-16T17:37:40.744Z,15.48
2024-02-16T17:40:13.128Z,16.13
2024-02-16T17:42:48.750Z,16.80
2024-02-16T17:45:17.865Z,13.48
2024-02-16T17:48:00.145Z,15.68
2024-02-16T17:50:30.471Z,16.55
2024-02-16T17:52:57.750Z,14.15
2024-02-16T17:55:25.411Z,23.70
2024-02-16T17:57:52.629Z,15.73
2024-02-16T18:00:20.721Z,16.73
2024-02-16T18:02:53.505Z,17.05
2024-02-16T18:07:51.758Z,14.50
2024-02-16T18:10:26.873Z,18.88
2024-02-16T18:12:57.767Z,20.77
2024-02-16T18:15:45.021Z,13.35
2024-02-16T18:18:13.016Z,12.38
2024-02-16T18:20:49.259Z,13.02
2024-02-16T18:23:17.534Z,15.82
2024-02-16T18:25:49.537Z,13.15
2024-02-16T18:28:25.472Z,11.07
2024-02-16T18:30:56.264Z,12.98
2024-02-16T18:33:34.795Z,10.38
2024-02-16T18:36:06.582Z,10.27
2024-02-16T18:38:36.897Z,21.92
2024-02-16T18:41:12.640Z,10.45
2024-02-16T18:43:40.381Z,9.55
2024-02-16T18:46:10.503Z,9.98
2024-02-16T18:48:48.559Z,9.95
2024-02-16T18:51:15.804Z,11.35
2024-02-16T18:53:51.867Z,11.98
2024-02-16T18:56:22.617Z,11.05
2024-02-16T18:58:58.179Z,9.45
2024-02-16T19:01:38.648Z,9.40
2024-02-16T19:04:06.505Z,8.43
2024-02-16T19:06:42.922Z,12.63
2024-02-16T19:09:10.840Z,11.25
2024-02-16T19:11:46.627Z,10.27
2024-02-16T19:14:14.275Z,9.85
2024-02-16T19:16:46.548Z,10.43
2024-02-16T19:19:15.670Z,8.68
2024-02-16T19:21:44.648Z,9.82
2024-02-16T19:24:15.851Z,8.02
2024-02-16T19:26:47.254Z,9.63
2024-02-16T19:29:14.611Z,8.82
2024-02-16T19:31:44.605Z,10.90
2024-02-16T19:34:11.868Z,10.68
2024-02-16T19:36:56.791Z,10.40
2024-02-16T19:39:26.638Z,9.55
2024-02-16T19:42:00.236Z,8.85
2024-02-16T19:44:29.309Z,15.65
2024-02-16T19:47:01.500Z,11.18
2024-02-16T19:49:29.375Z,9.63
2024-02-16T19:52:01.049Z,11.60
2024-02-16T19:54:46.397Z,9.55
2024-02-16T19:57:14.724Z,10.85
2024-02-16T19:59:46.740Z,9.52
2024-02-16T20:07:29.763Z,10.55
2024-02-16T20:09:57.432Z,10.55
2024-02-16T20:12:28.291Z,8.80
2024-02-16T20:15:03.957Z,9.00
2024-02-16T20:17:31.643Z,8.68
2024-02-16T20:20:17.077Z,9.18
2024-02-16T20:22:44.506Z,9.25
2024-02-16T20:25:15.413Z,10.20
2024-02-16T20:27:48.573Z,10.80
2024-02-16T20:30:16.204Z,11.48
2024-02-16T20:32:51.762Z,9.18
2024-02-16T20:35:20.574Z,10.55
2024-02-16T20:37:50.059Z,9.63
2024-02-16T20:40:21.470Z,10.73
2024-02-16T20:42:49.195Z,9.88
2024-02-16T20:45:17.419Z,16.90
2024-02-16T20:47:48.086Z,9.38
2024-02-16T20:50:16.780Z,9.60
2024-02-16T20:52:47.289Z,10.77
2024-02-16T20:55:18.721Z,12.23
2024-02-16T20:57:50.456Z,12.13
2024-02-16T21:00:24.579Z,11.23
2024-02-16T21:02:59.627Z,12.57
2024-02-16T21:05:29.493Z,27.80
2024-02-16T21:08:01.847Z,39.75
2024-02-16T21:10:29.637Z,47.42
2024-02-16T21:12:57.398Z,17.75
2024-02-16T21:15:37.941Z,11.32
2024-02-16T21:18:05.969Z,14.25
2024-02-16T21:20:36.617Z,10.98
2024-02-16T21:23:10.142Z,15.18
2024-02-16T21:25:39.302Z,12.40
2024-02-16T21:28:07.772Z,15.35
2024-02-16T21:30:36.362Z,15.32
2024-02-16T21:33:08.952Z,15.73
2024-02-16T21:35:37.599Z,67.93
2024-02-16T21:38:06.726Z,35.72
2024-02-16T21:40:37.480Z,21.52
2024-02-16T21:43:07.846Z,40.45
2024-02-16T21:45:35.187Z,43.53
2024-02-16T21:48:04.763Z,46.08
2024-02-16T21:50:34.306Z,10.80
2024-02-16T21:53:25.333Z,21.10
2024-02-16T21:58:20.640Z,28.90
2024-02-16T22:00:48.445Z,22.38
2024-02-16T22:03:15.964Z,18.33
2024-02-16T22:05:46.320Z,39.13
2024-02-16T22:08:16.835Z,34.58
2024-02-16T22:10:45.419Z,10.88
2024-02-16T22:13:13.525Z,9.93
2024-02-16T22:15:46.702Z,10.38
2024-02-16T22:18:16.749Z,37.75
2024-02-16T22:20:46.210Z,10.48
2024-02-16T22:25:45.469Z,26.65
2024-02-16T22:28:12.527Z,12.18
2024-02-16T22:30:47.384Z,13.60
2024-02-16T22:33:14.759Z,12.85
2024-02-16T22:35:49.410Z,16.35
2024-02-16T22:38:19.168Z,32.15
2024-02-16T22:40:50.848Z,88.80
2024-02-16T22:43:23.966Z,25.08
2024-02-16T22:45:54.328Z,26.92
2024-02-16T22:48:21.659Z,21.80
2024-02-16T22:50:50.516Z,16.90
2024-02-16T22:53:18.348Z,43.97
2024-02-16T22:55:48.762Z,8.57
2024-02-16T22:58:19.254Z,14.20
2024-02-16T23:00:50.772Z,38.78
2024-02-16T23:03:18.943Z,37.40
2024-02-16T23:05:52.403Z,28.88
2024-02-16T23:08:20.849Z,11.90
2024-02-16T23:10:48.243Z,28.42
2024-02-16T23:13:19.761Z,60.15
2024-02-16T23:15:47.277Z,27.90
2024-02-16T23:18:14.571Z,11.48
2024-02-16T23:20:44.274Z,29.70
2024-02-16T23:23:12.814Z,13.23
2024-02-16T23:25:47.663Z,27.63
2024-02-16T23:28:22.028Z,21.92
2024-02-16T23:30:51.916Z,14.93
2024-02-16T23:33:19.395Z,38.30
2024-02-16T23:35:48.364Z,9.52
2024-02-16T23:38:17.711Z,36.35
2024-02-16T23:40:48.649Z,17.90
2024-02-16T23:43:16.666Z,17.70
2024-02-16T23:45:52.194Z,15.68
2024-02-16T23:48:20.237Z,11.52
2024-02-16T23:50:49.210Z,34.72
2024-02-16T23:53:17.202Z,26.10
2024-02-16T23:55:46.794Z,11.95
